createdAt,value
2023-04-19T00:01:15.167Z,9.13
2023-04-19T00:06:18.054Z,7.93
2023-04-19T00:11:21.172Z,7.12
2023-04-19T00:16:24.262Z,6.52
2023-04-19T00:21:27.757Z,6.06
2023-04-19T00:26:30.697Z,6.59
2023-04-19T00:31:33.806Z,8.93
2023-04-19T00:36:36.715Z,10.23
2023-04-19T00:41:39.509Z,11.00
2023-04-19T00:46:43.647Z,9.90
2023-04-19T00:51:48.032Z,8.19
2023-04-19T00:56:51.682Z,7.17
2023-04-19T01:01:54.855Z,6.50
2023-04-19T01:06:57.832Z,6.04
2023-04-19T01:12:02.290Z,5.70
2023-04-19T01:17:05.991Z,6.51
2023-04-19T01:22:09.806Z,9.03
2023-04-19T01:27:14.249Z,10.42
2023-04-19T01:32:17.563Z,11.39
2023-04-19T01:37:20.478Z,11.38
2023-04-19T01:42:23.376Z,9.69
2023-04-19T01:47:26.284Z,8.49
2023-04-19T01:52:29.184Z,7.73
2023-04-19T01:57:32.104Z,7.19
2023-04-19T02:02:38.554Z,6.78
2023-04-19T02:07:41.689Z,7.32
2023-04-19T02:12:44.684Z,9.53
2023-04-19T02:17:47.554Z,10.82
2023-04-19T02:22:50.532Z,11.76
2023-04-19T02:27:54.021Z,11.76
2023-04-19T02:32:58.960Z,9.95
2023-04-19T02:38:03.941Z,8.70
2023-04-19T02:43:06.822Z,7.88
2023-04-19T02:48:09.766Z,8.06
2023-04-19T02:53:12.853Z,10.13
2023-04-19T02:58:15.935Z,11.25
2023-04-19T03:03:19.292Z,11.22
2023-04-19T03:08:22.260Z,9.51
2023-04-19T03:13:25.173Z,8.35
2023-04-19T03:18:27.976Z,7.56
2023-04-19T03:23:31.073Z,7.03
2023-04-19T03:28:33.979Z,7.74
2023-04-19T03:33:36.874Z,9.95
2023-04-19T03:38:41.001Z,10.35
2023-04-19T03:43:43.904Z,8.85
2023-04-19T03:48:47.021Z,7.86
2023-04-19T03:53:49.926Z,7.26
2023-04-19T03:58:53.028Z,6.85
2023-04-19T04:03:56.069Z,7.64
2023-04-19T04:08:59.048Z,10.04
2023-04-19T04:14:01.943Z,10.50
2023-04-19T04:19:04.844Z,8.88
2023-04-19T04:24:08.156Z,7.82
2023-04-19T04:29:11.112Z,7.23
2023-04-19T04:34:14.577Z,8.79
2023-04-19T04:39:18.422Z,10.36
2023-04-19T04:44:22.745Z,9.22
2023-04-19T04:49:25.770Z,7.95
2023-04-19T04:54:28.678Z,7.31
2023-04-19T04:59:31.581Z,8.93
2023-04-19T05:04:34.556Z,10.83
2023-04-19T05:09:37.489Z,11.25
2023-04-19T05:14:40.494Z,9.66
2023-04-19T05:19:43.397Z,8.55
2023-04-19T05:24:47.426Z,8.28
2023-04-19T05:29:51.683Z,10.23
2023-04-19T05:34:54.508Z,11.01
2023-04-19T05:39:58.440Z,9.48
2023-04-19T05:45:02.890Z,8.38
2023-04-19T05:50:08.217Z,8.74
2023-04-19T05:55:11.227Z,10.48
2023-04-19T06:00:16.206Z,9.58
2023-04-19T06:05:20.322Z,9.01
2023-04-19T06:10:24.070Z,10.91
2023-04-19T06:15:27.331Z,11.51
2023-04-19T06:20:30.431Z,10.34
2023-04-19T06:25:33.848Z,9.94
2023-04-19T06:30:36.779Z,11.60
2023-04-19T06:35:39.664Z,12.27
2023-04-19T06:40:42.665Z,11.35
2023-04-19T06:45:45.611Z,10.45
2023-04-19T06:50:48.481Z,9.67
2023-04-19T06:56:00.002Z,9.07
2023-04-19T07:01:06.076Z,9.88
2023-04-19T07:06:09.192Z,10.46
2023-04-19T07:11:12.175Z,9.28
2023-04-19T07:16:15.204Z,8.57
2023-04-19T07:21:18.180Z,8.65
2023-04-19T07:26:21.189Z,10.79
2023-04-19T07:31:27.370Z,10.70
2023-04-19T07:36:31.628Z,9.49
2023-04-19T07:41:35.921Z,8.78
2023-04-19T07:46:39.775Z,9.32
2023-04-19T07:51:42.773Z,11.56
2023-04-19T07:56:46.204Z,11.09
2023-04-19T08:01:49.916Z,11.11
2023-04-19T08:06:53.973Z,13.18
2023-04-19T08:11:58.092Z,12.56
2023-04-19T08:22:07.061Z,10.32
2023-04-19T08:27:11.301Z,9.70
2023-04-19T08:32:14.238Z,10.10
2023-04-19T08:37:17.230Z,11.64
2023-04-19T08:42:35.125Z,10.60
2023-04-19T08:47:56.342Z,9.64
2023-04-19T08:53:16.469Z,8.98
2023-04-19T08:58:36.567Z,10.47
2023-04-19T09:04:02.423Z,11.50
2023-04-19T09:14:28.316Z,9.58
2023-04-19T09:19:46.791Z,9.91
2023-04-19T09:30:01.532Z,10.34
2023-04-19T09:35:05.943Z,9.60
2023-04-19T09:40:28.239Z,11.16
2023-04-19T09:45:45.468Z,10.70
2023-04-19T09:51:05.855Z,9.50
2023-04-19T09:56:13.097Z,10.80
2023-04-19T10:01:19.309Z,11.72
2023-04-19T10:11:40.329Z,9.85
2023-04-19T10:16:43.868Z,11.40
2023-04-19T10:21:49.525Z,12.03
2023-04-19T10:27:09.219Z,10.78
2023-04-19T10:32:14.078Z,10.06
2023-04-19T10:37:17.162Z,11.27
2023-04-19T10:42:20.059Z,11.57
2023-04-19T10:47:52.082Z,10.68
2023-04-19T10:52:55.072Z,11.40
2023-04-19T10:58:07.833Z,12.86
2023-04-19T11:03:45.317Z,12.09
2023-04-19T11:08:48.527Z,11.58
2023-04-19T11:13:51.916Z,11.33
2023-04-19T11:18:56.639Z,13.14
2023-04-19T11:24:13.154Z,12.82
2023-04-19T11:29:16.213Z,11.78
2023-04-19T11:34:23.064Z,11.27
2023-04-19T11:39:26.229Z,12.05
2023-04-19T11:44:29.150Z,13.41
2023-04-19T11:49:34.133Z,12.43
2023-04-19T11:54:37.414Z,11.69
2023-04-19T12:00:08.718Z,11.41
2023-04-19T12:05:14.524Z,13.11
2023-04-19T12:10:17.556Z,12.68
2023-04-19T12:15:22.456Z,11.97
2023-04-19T12:20:35.380Z,11.43
2023-04-19T12:25:38.556Z,12.42
2023-04-19T12:30:42.399Z,12.82
2023-04-19T12:35:46.096Z,11.98
2023-04-19T12:40:49.004Z,11.49
2023-04-19T12:45:51.944Z,12.07
2023-04-19T12:50:55.318Z,13.38
2023-04-19T12:55:58.853Z,12.29
2023-04-19T13:01:01.780Z,11.58
2023-04-19T13:06:05.748Z,11.28
2023-04-19T13:11:08.883Z,12.83
2023-04-19T13:16:11.815Z,13.37
2023-04-19T13:21:15.100Z,12.53
2023-04-19T13:26:18.059Z,12.30
2023-04-19T13:31:20.988Z,12.47
2023-04-19T13:36:23.946Z,13.39
2023-04-19T13:41:26.834Z,15.66
2023-04-19T13:46:29.763Z,16.23
2023-04-19T13:51:46.516Z,16.77
2023-04-19T13:56:52.565Z,16.29
2023-04-19T14:01:56.308Z,15.88
2023-04-19T14:06:59.274Z,17.18
2023-04-19T14:12:02.685Z,19.15
2023-04-19T14:17:05.787Z,20.33
2023-04-19T14:22:08.695Z,20.10
2023-04-19T14:27:12.138Z,20.19
2023-04-19T14:37:23.294Z,20.74
2023-04-19T14:42:26.251Z,22.63
2023-04-19T14:47:29.191Z,23.28
2023-04-19T14:52:32.368Z,24.53
2023-04-19T14:57:35.268Z,25.07
2023-04-19T15:02:38.269Z,24.36
2023-04-19T15:07:41.894Z,24.72
2023-04-19T15:12:45.010Z,26.04
2023-04-19T15:17:47.823Z,26.94
2023-04-19T15:22:51.027Z,27.24
2023-04-19T15:27:53.925Z,27.31
2023-04-19T15:32:57.067Z,27.34
2023-04-19T15:38:00.044Z,27.30
2023-04-19T15:43:02.946Z,26.40
2023-04-19T15:48:06.311Z,26.29
2023-04-19T15:53:10.088Z,26.11
2023-04-19T15:58:12.882Z,24.07
2023-04-19T16:03:16.230Z,21.87
2023-04-19T16:08:19.920Z,20.26
2023-04-19T16:13:22.827Z,19.02
2023-04-19T16:18:25.949Z,18.21
2023-04-19T16:23:29.146Z,17.56
2023-04-19T16:28:32.067Z,17.00
2023-04-19T16:33:35.266Z,16.59
2023-04-19T16:38:38.074Z,16.31
2023-04-19T16:43:41.170Z,16.11
2023-04-19T16:48:44.179Z,15.90
2023-04-19T16:53:47.435Z,15.63
2023-04-19T16:58:51.086Z,15.35
2023-04-19T17:03:54.059Z,15.12
2023-04-19T17:08:57.027Z,14.86
2023-04-19T17:14:00.172Z,14.43
2023-04-19T17:19:03.039Z,13.92
2023-04-19T17:24:06.160Z,13.46
2023-04-19T17:29:09.176Z,13.10
2023-04-19T17:34:12.138Z,12.80
2023-04-19T17:39:15.643Z,12.55
2023-04-19T17:44:18.782Z,12.32
2023-04-19T17:49:22.133Z,12.14
2023-04-19T17:54:25.108Z,12.77
2023-04-19T17:59:28.422Z,13.84
2023-04-19T18:04:31.661Z,12.87
2023-04-19T18:09:34.745Z,13.10
2023-04-19T18:14:37.645Z,13.77
2023-04-19T18:19:40.757Z,12.91
2023-04-19T18:24:46.732Z,12.29
2023-04-19T18:29:53.045Z,11.89
2023-04-19T18:34:56.027Z,12.48
2023-04-19T18:39:59.454Z,14.40
2023-04-19T18:45:04.264Z,13.65
2023-04-19T18:50:08.873Z,12.70
2023-04-19T18:55:13.896Z,12.20
2023-04-19T19:00:17.431Z,11.85
2023-04-19T19:05:21.122Z,11.59
2023-04-19T19:15:29.903Z,14.55
2023-04-19T19:20:33.011Z,15.70
2023-04-19T19:25:35.914Z,14.62
2023-04-19T19:30:42.931Z,13.50
2023-04-19T19:35:46.073Z,12.78
2023-04-19T19:41:24.575Z,12.20
2023-04-19T19:46:13.884Z,12.73
2023-04-19T19:51:44.136Z,14.86
2023-04-19T19:56:53.859Z,16.05
2023-04-19T20:02:03.807Z,15.13
2023-04-19T20:07:32.937Z,13.72
2023-04-19T20:12:32.472Z,12.82
2023-04-19T20:17:35.805Z,12.24
2023-04-19T20:22:38.787Z,12.62
2023-04-19T20:27:41.701Z,14.64
2023-04-19T20:32:44.635Z,15.70
2023-04-19T20:37:47.541Z,15.61
2023-04-19T20:42:50.518Z,14.06
2023-04-19T20:47:54.436Z,13.09
2023-04-19T20:52:58.570Z,13.22
2023-04-19T20:58:02.719Z,14.99
2023-04-19T21:03:06.671Z,15.99
2023-04-19T21:08:09.740Z,15.63
2023-04-19T21:13:12.750Z,14.06
2023-04-19T21:18:15.755Z,13.04
2023-04-19T21:23:18.663Z,12.25
2023-04-19T21:28:22.734Z,11.64
2023-04-19T21:33:25.600Z,11.20
2023-04-19T21:38:28.500Z,11.74
2023-04-19T21:43:31.917Z,13.98
2023-04-19T21:48:34.926Z,15.27
2023-04-19T21:53:38.343Z,15.35
2023-04-19T21:58:41.247Z,13.82
2023-04-19T22:03:45.967Z,12.80
2023-04-19T22:08:49.920Z,12.05
2023-04-19T22:13:52.719Z,11.46
2023-04-19T22:18:56.240Z,11.82
2023-04-19T22:23:59.155Z,13.90
2023-04-19T22:29:02.265Z,15.11
2023-04-19T22:34:05.254Z,15.29
2023-04-19T22:39:09.284Z,13.74
2023-04-19T22:44:12.206Z,12.64
2023-04-19T22:49:15.514Z,11.86
2023-04-19T22:54:18.610Z,11.29
2023-04-19T22:59:21.617Z,11.70
2023-04-19T23:04:24.606Z,13.82
2023-04-19T23:09:29.968Z,15.04
2023-04-19T23:14:33.106Z,15.76
2023-04-19T23:19:37.867Z,14.72
2023-04-19T23:24:41.267Z,13.26
2023-04-19T23:29:44.115Z,12.35
2023-04-19T23:34:47.067Z,11.67
2023-04-19T23:39:49.873Z,11.99
2023-04-19T23:44:54.615Z,14.05
2023-04-19T23:49:57.524Z,15.28
2023-04-19T23:55:00.729Z,15.30
